sensor_id;sensor_type;location;lat;lon;timestamp;pressure;altitude;pressure_sealevel;temperature;humidity
70437;BME280;57877;39.750;-104.894;2023-03-04T00:00:31;82631.22;;;3.25;46.13
70437;BME280;57877;39.750;-104.894;2023-03-04T00:02:56;82645.23;;;3.08;45.15
70437;BME280;57877;39.750;-104.894;2023-03-04T00:05:21;82657.67;;;3.58;45.61
70437;BME280;57877;39.750;-104.894;2023-03-04T00:07:46;82663.88;;;3.59;45.87
70437;BME280;57877;39.750;-104.894;2023-03-04T00:10:12;82669.24;;;3.18;46.13
70437;BME280;57877;39.750;-104.894;2023-03-04T00:12:36;82671.49;;;2.71;45.54
70437;BME280;57877;39.750;-104.894;2023-03-04T00:15:01;82674.42;;;3.30;45.48
70437;BME280;57877;39.750;-104.894;2023-03-04T00:17:26;82674.60;;;2.97;45.10
70437;BME280;57877;39.750;-104.894;2023-03-04T00:19:51;82678.95;;;3.07;44.37
70437;BME280;57877;39.750;-104.894;2023-03-04T00:22:17;82683.79;;;3.23;44.40
70437;BME280;57877;39.750;-104.894;2023-03-04T00:24:42;82691.81;;;2.88;45.48
70437;BME280;57877;39.750;-104.894;2023-03-04T00:27:07;82701.55;;;2.46;45.51
70437;BME280;57877;39.750;-104.894;2023-03-04T00:29:32;82708.84;;;2.93;44.80
70437;BME280;57877;39.750;-104.894;2023-03-04T00:31:58;82711.95;;;3.52;45.18
70437;BME280;57877;39.750;-104.894;2023-03-04T00:34:23;82718.07;;;3.11;44.49
70437;BME280;57877;39.750;-104.894;2023-03-04T00:36:49;82727.79;;;3.04;44.59
70437;BME280;57877;39.750;-104.894;2023-03-04T00:39:14;82734.50;;;3.22;44.56
70437;BME280;57877;39.750;-104.894;2023-03-04T00:41:39;82735.08;;;2.90;44.44
70437;BME280;57877;39.750;-104.894;2023-03-04T00:44:05;82740.33;;;3.35;44.09
70437;BME280;57877;39.750;-104.894;2023-03-04T00:46:29;82743.23;;;3.55;43.55
70437;BME280;57877;39.750;-104.894;2023-03-04T00:48:54;82756.87;;;3.72;43.56
70437;BME280;57877;39.750;-104.894;2023-03-04T00:51:19;82763.13;;;3.56;43.51
70437;BME280;57877;39.750;-104.894;2023-03-04T00:53:44;82762.25;;;2.70;44.45
70437;BME280;57877;39.750;-104.894;2023-03-04T00:56:09;82769.08;;;3.27;43.52
70437;BME280;57877;39.750;-104.894;2023-03-04T00:58:34;82777.09;;;3.51;43.07
70437;BME280;57877;39.750;-104.894;2023-03-04T01:00:59;82778.68;;;3.69;42.59
70437;BME280;57877;39.750;-104.894;2023-03-04T01:03:24;82778.16;;;4.07;42.38
70437;BME280;57877;39.750;-104.894;2023-03-04T01:05:49;82783.42;;;3.94;41.80
70437;BME280;57877;39.750;-104.894;2023-03-04T01:08:14;82786.76;;;4.06;41.91
70437;BME280;57877;39.750;-104.894;2023-03-04T01:10:39;82784.47;;;4.04;41.58
70437;BME280;57877;39.750;-104.894;2023-03-04T01:13:05;82777.57;;;3.29;42.11
70437;BME280;57877;39.750;-104.894;2023-03-04T01:15:29;82770.51;;;3.66;42.67
70437;BME280;57877;39.750;-104.894;2023-03-04T01:17:55;82779.32;;;3.77;43.23
70437;BME280;57877;39.750;-104.894;2023-03-04T01:20:20;82788.65;;;3.78;42.48
70437;BME280;57877;39.750;-104.894;2023-03-04T01:22:45;82794.79;;;3.76;42.27
70437;BME280;57877;39.750;-104.894;2023-03-04T01:25:10;82798.22;;;4.00;42.10
70437;BME280;57877;39.750;-104.894;2023-03-04T01:27:35;82808.56;;;3.84;41.81
70437;BME280;57877;39.750;-104.894;2023-03-04T01:30:01;82812.99;;;3.73;41.53
70437;BME280;57877;39.750;-104.894;2023-03-04T01:32:26;82816.54;;;3.63;42.64
70437;BME280;57877;39.750;-104.894;2023-03-04T01:34:51;82823.52;;;3.44;43.52
70437;BME280;57877;39.750;-104.894;2023-03-04T01:37:16;82833.80;;;3.68;42.15
70437;BME280;57877;39.750;-104.894;2023-03-04T01:39:41;82837.53;;;3.37;42.21
70437;BME280;57877;39.750;-104.894;2023-03-04T01:42:12;82843.28;;;3.42;42.08
70437;BME280;57877;39.750;-104.894;2023-03-04T01:44:31;82847.36;;;3.55;42.01
70437;BME280;57877;39.750;-104.894;2023-03-04T01:46:56;82850.94;;;3.79;41.66
70437;BME280;57877;39.750;-104.894;2023-03-04T01:49:22;82858.53;;;3.39;41.83
70437;BME280;57877;39.750;-104.894;2023-03-04T01:51:49;82864.55;;;3.58;41.26
70437;BME280;57877;39.750;-104.894;2023-03-04T01:54:11;82862.72;;;3.62;41.32
70437;BME280;57877;39.750;-104.894;2023-03-04T01:56:38;82860.84;;;3.55;41.25
70437;BME280;57877;39.750;-104.894;2023-03-04T01:59:07;82862.62;;;3.39;41.58
70437;BME280;57877;39.750;-104.894;2023-03-04T02:01:27;82862.71;;;3.39;41.12
70437;BME280;57877;39.750;-104.894;2023-03-04T02:03:52;82865.15;;;3.34;41.10
70437;BME280;57877;39.750;-104.894;2023-03-04T02:06:17;82868.31;;;3.32;41.12
70437;BME280;57877;39.750;-104.894;2023-03-04T02:08:42;82871.91;;;3.44;40.72
70437;BME280;57877;39.750;-104.894;2023-03-04T02:11:07;82876.53;;;3.60;40.14
70437;BME280;57877;39.750;-104.894;2023-03-04T02:13:32;82875.02;;;3.12;40.31
70437;BME280;57877;39.750;-104.894;2023-03-04T02:15:57;82877.05;;;3.14;40.61
70437;BME280;57877;39.750;-104.894;2023-03-04T02:18:24;82880.10;;;3.22;40.88
70437;BME280;57877;39.750;-104.894;2023-03-04T02:20:57;82884.68;;;3.41;41.28
70437;BME280;57877;39.750;-104.894;2023-03-04T02:23:17;82889.95;;;2.95;41.41
70437;BME280;57877;39.750;-104.894;2023-03-04T02:25:44;82894.74;;;3.11;41.17
70437;BME280;57877;39.750;-104.894;2023-03-04T02:28:03;82895.36;;;2.94;41.44
70437;BME280;57877;39.750;-104.894;2023-03-04T02:30:28;82894.91;;;2.75;41.41
70437;BME280;57877;39.750;-104.894;2023-03-04T02:32:53;82897.12;;;2.87;41.87
70437;BME280;57877;39.750;-104.894;2023-03-04T02:35:19;82897.87;;;2.57;42.54
70437;BME280;57877;39.750;-104.894;2023-03-04T02:37:43;82904.82;;;2.59;42.77
70437;BME280;57877;39.750;-104.894;2023-03-04T02:40:13;82906.70;;;2.73;42.98
70437;BME280;57877;39.750;-104.894;2023-03-04T02:42:48;82905.65;;;2.72;42.43
70437;BME280;57877;39.750;-104.894;2023-03-04T02:45:00;82911.95;;;2.71;42.36
70437;BME280;57877;39.750;-104.894;2023-03-04T02:47:23;82919.49;;;2.84;42.21
70437;BME280;57877;39.750;-104.894;2023-03-04T02:49:48;82922.37;;;2.88;42.36
70437;BME280;57877;39.750;-104.894;2023-03-04T02:52:16;82924.48;;;2.72;42.61
70437;BME280;57877;39.750;-104.894;2023-03-04T02:54:39;82919.05;;;2.60;42.67
70437;BME280;57877;39.750;-104.894;2023-03-04T02:57:05;82920.99;;;2.90;42.78
70437;BME280;57877;39.750;-104.894;2023-03-04T02:59:29;82920.02;;;2.44;42.91
70437;BME280;57877;39.750;-104.894;2023-03-04T03:01:54;82923.17;;;2.28;43.47
70437;BME280;57877;39.750;-104.894;2023-03-04T03:04:25;82918.87;;;2.29;43.40
70437;BME280;57877;39.750;-104.894;2023-03-04T03:06:44;82917.12;;;1.90;44.14
70437;BME280;57877;39.750;-104.894;2023-03-04T03:09:09;82918.64;;;1.58;44.14
70437;BME280;57877;39.750;-104.894;2023-03-04T03:11:34;82920.94;;;1.74;44.12
70437;BME280;57877;39.750;-104.894;2023-03-04T03:13:59;82923.66;;;1.17;45.46
70437;BME280;57877;39.750;-104.894;2023-03-04T03:16:24;82928.44;;;2.00;44.81
70437;BME280;57877;39.750;-104.894;2023-03-04T03:18:49;82932.47;;;1.70;44.49
70437;BME280;57877;39.750;-104.894;2023-03-04T03:21:15;82936.13;;;1.86;44.31
70437;BME280;57877;39.750;-104.894;2023-03-04T03:23:39;82937.52;;;2.07;44.04
70437;BME280;57877;39.750;-104.894;2023-03-04T03:26:05;82932.16;;;2.24;43.74
70437;BME280;57877;39.750;-104.894;2023-03-04T03:28:30;82933.97;;;2.11;43.77
70437;BME280;57877;39.750;-104.894;2023-03-04T03:30:54;82933.81;;;1.72;44.02
70437;BME280;57877;39.750;-104.894;2023-03-04T03:33:20;82938.85;;;2.16;43.47
70437;BME280;57877;39.750;-104.894;2023-03-04T03:35:45;82944.29;;;2.31;43.22
70437;BME280;57877;39.750;-104.894;2023-03-04T03:38:10;82947.20;;;2.29;43.25
70437;BME280;57877;39.750;-104.894;2023-03-04T03:40:35;82951.48;;;2.13;43.10
70437;BME280;57877;39.750;-104.894;2023-03-04T03:43:00;82954.65;;;2.03;43.26
70437;BME280;57877;39.750;-104.894;2023-03-04T03:45:25;82954.69;;;2.28;43.77
70437;BME280;57877;39.750;-104.894;2023-03-04T03:47:50;82957.65;;;2.10;43.49
70437;BME280;57877;39.750;-104.894;2023-03-04T03:50:16;82962.33;;;1.94;43.10
70437;BME280;57877;39.750;-104.894;2023-03-04T03:52:40;82960.46;;;1.78;43.59
70437;BME280;57877;39.750;-104.894;2023-03-04T03:55:06;82958.80;;;1.88;43.83
70437;BME280;57877;39.750;-104.894;2023-03-04T03:57:31;82958.42;;;1.97;43.70
70437;BME280;57877;39.750;-104.894;2023-03-04T03:59:56;82961.02;;;1.53;43.74
70437;BME280;57877;39.750;-104.894;2023-03-04T04:02:21;82958.89;;;1.37;44.44
70437;BME280;57877;39.750;-104.894;2023-03-04T04:04:46;82954.69;;;1.65;44.58
70437;BME280;57877;39.750;-104.894;2023-03-04T04:07:11;82953.25;;;1.56;44.53
70437;BME280;57877;39.750;-104.894;2023-03-04T04:09:36;82951.68;;;1.36;44.49
70437;BME280;57877;39.750;-104.894;2023-03-04T04:12:03;82948.08;;;1.22;44.22
70437;BME280;57877;39.750;-104.894;2023-03-04T04:14:26;82953.96;;;0.86;45.24
70437;BME280;57877;39.750;-104.894;2023-03-04T04:16:51;82961.09;;;1.42;44.91
70437;BME280;57877;39.750;-104.894;2023-03-04T04:19:18;82964.43;;;0.82;46.20
70437;BME280;57877;39.750;-104.894;2023-03-04T04:21:41;82960.35;;;1.04;45.94
70437;BME280;57877;39.750;-104.894;2023-03-04T04:24:07;82949.06;;;0.83;46.54
70437;BME280;57877;39.750;-104.894;2023-03-04T04:26:32;82940.65;;;1.01;46.10
70437;BME280;57877;39.750;-104.894;2023-03-04T04:28:57;82935.42;;;0.92;46.12
70437;BME280;57877;39.750;-104.894;2023-03-04T04:31:22;82924.22;;;1.29;44.97
70437;BME280;57877;39.750;-104.894;2023-03-04T04:33:47;82930.08;;;0.63;46.00
70437;BME280;57877;39.750;-104.894;2023-03-04T04:36:14;82942.20;;;1.24;45.04
70437;BME280;57877;39.750;-104.894;2023-03-04T04:38:37;82946.95;;;1.19;45.38
70437;BME280;57877;39.750;-104.894;2023-03-04T04:41:03;82951.06;;;1.32;44.95
70437;BME280;57877;39.750;-104.894;2023-03-04T04:43:27;82955.99;;;0.91;44.94
70437;BME280;57877;39.750;-104.894;2023-03-04T04:45:53;82965.52;;;0.70;45.43
70437;BME280;57877;39.750;-104.894;2023-03-04T04:48:17;82968.52;;;0.98;45.16
70437;BME280;57877;39.750;-104.894;2023-03-04T04:50:42;82968.61;;;0.69;45.62
70437;BME280;57877;39.750;-104.894;2023-03-04T04:53:08;82972.84;;;1.01;45.83
70437;BME280;57877;39.750;-104.894;2023-03-04T04:55:33;82976.78;;;0.86;45.05
70437;BME280;57877;39.750;-104.894;2023-03-04T04:57:58;82974.40;;;0.94;44.92
70437;BME280;57877;39.750;-104.894;2023-03-04T05:00:23;82974.29;;;1.12;44.77
70437;BME280;57877;39.750;-104.894;2023-03-04T05:02:48;82979.24;;;0.62;44.91
70437;BME280;57877;39.750;-104.894;2023-03-04T05:05:13;82981.73;;;0.50;45.66
70437;BME280;57877;39.750;-104.894;2023-03-04T05:07:38;82982.22;;;0.71;45.70
70437;BME280;57877;39.750;-104.894;2023-03-04T05:10:04;82982.23;;;1.09;45.22
70437;BME280;57877;39.750;-104.894;2023-03-04T05:12:29;82980.64;;;1.16;45.14
70437;BME280;57877;39.750;-104.894;2023-03-04T05:14:54;82976.90;;;0.78;45.93
70437;BME280;57877;39.750;-104.894;2023-03-04T05:17:19;82984.76;;;0.77;45.76
70437;BME280;57877;39.750;-104.894;2023-03-04T05:19:44;82978.83;;;1.03;45.26
70437;BME280;57877;39.750;-104.894;2023-03-04T05:22:09;82972.69;;;0.89;45.49
70437;BME280;57877;39.750;-104.894;2023-03-04T05:24:34;82976.98;;;0.76;45.20
70437;BME280;57877;39.750;-104.894;2023-03-04T05:26:59;82984.93;;;0.29;46.29
70437;BME280;57877;39.750;-104.894;2023-03-04T05:29:24;82989.36;;;0.53;45.98
70437;BME280;57877;39.750;-104.894;2023-03-04T05:31:49;82987.76;;;0.90;45.59
70437;BME280;57877;39.750;-104.894;2023-03-04T05:34:15;82992.80;;;0.77;45.52
70437;BME280;57877;39.750;-104.894;2023-03-04T05:36:40;82988.32;;;0.69;45.59
70437;BME280;57877;39.750;-104.894;2023-03-04T05:39:05;82999.26;;;0.40;45.66
70437;BME280;57877;39.750;-104.894;2023-03-04T05:41:30;83005.19;;;0.75;45.09
70437;BME280;57877;39.750;-104.894;2023-03-04T05:43:55;83010.99;;;0.45;44.81
70437;BME280;57877;39.750;-104.894;2023-03-04T05:46:20;83013.69;;;0.01;46.19
70437;BME280;57877;39.750;-104.894;2023-03-04T05:48:45;83017.66;;;0.15;46.04
70437;BME280;57877;39.750;-104.894;2023-03-04T05:51:10;83018.45;;;0.26;45.75
70437;BME280;57877;39.750;-104.894;2023-03-04T05:53:36;83019.05;;;0.33;45.55
70437;BME280;57877;39.750;-104.894;2023-03-04T05:56:06;83020.64;;;0.51;45.18
70437;BME280;57877;39.750;-104.894;2023-03-04T05:58:26;83024.86;;;0.79;44.50
70437;BME280;57877;39.750;-104.894;2023-03-04T06:00:51;83036.63;;;0.47;44.13
70437;BME280;57877;39.750;-104.894;2023-03-04T06:03:18;83043.67;;;0.49;44.60
70437;BME280;57877;39.750;-104.894;2023-03-04T06:05:41;83047.52;;;0.36;44.23
70437;BME280;57877;39.750;-104.894;2023-03-04T06:08:06;83051.93;;;0.45;44.42
70437;BME280;57877;39.750;-104.894;2023-03-04T06:10:31;83052.00;;;0.24;44.85
70437;BME280;57877;39.750;-104.894;2023-03-04T06:12:57;83053.65;;;0.26;44.75
70437;BME280;57877;39.750;-104.894;2023-03-04T06:15:22;83058.88;;;0.40;44.65
70437;BME280;57877;39.750;-104.894;2023-03-04T06:17:47;83057.72;;;0.32;44.60
70437;BME280;57877;39.750;-104.894;2023-03-04T06:20:12;83061.63;;;0.55;44.22
70437;BME280;57877;39.750;-104.894;2023-03-04T06:22:37;83065.69;;;0.21;45.22
70437;BME280;57877;39.750;-104.894;2023-03-04T06:25:02;83066.50;;;-0.09;45.57
70437;BME280;57877;39.750;-104.894;2023-03-04T06:27:27;83072.59;;;-0.05;45.57
70437;BME280;57877;39.750;-104.894;2023-03-04T06:29:52;83081.08;;;-0.29;46.04
70437;BME280;57877;39.750;-104.894;2023-03-04T06:32:17;83088.29;;;-0.38;46.29
70437;BME280;57877;39.750;-104.894;2023-03-04T06:34:42;83089.17;;;-0.03;46.01
70437;BME280;57877;39.750;-104.894;2023-03-04T06:37:07;83093.37;;;-0.06;45.77
70437;BME280;57877;39.750;-104.894;2023-03-04T06:39:33;83094.14;;;0.05;45.60
70437;BME280;57877;39.750;-104.894;2023-03-04T06:41:58;83095.08;;;0.44;44.96
70437;BME280;57877;39.750;-104.894;2023-03-04T06:44:23;83098.53;;;0.15;45.34
70437;BME280;57877;39.750;-104.894;2023-03-04T06:46:48;83096.11;;;0.21;45.36
70437;BME280;57877;39.750;-104.894;2023-03-04T06:49:13;83084.73;;;0.34;44.93
70437;BME280;57877;39.750;-104.894;2023-03-04T06:51:38;83093.86;;;0.41;44.51
70437;BME280;57877;39.750;-104.894;2023-03-04T06:54:03;83101.57;;;0.17;44.58
70437;BME280;57877;39.750;-104.894;2023-03-04T06:56:29;83101.44;;;0.05;45.55
70437;BME280;57877;39.750;-104.894;2023-03-04T06:58:54;83108.40;;;-0.43;45.66
70437;BME280;57877;39.750;-104.894;2023-03-04T07:01:20;83111.23;;;-0.01;45.23
70437;BME280;57877;39.750;-104.894;2023-03-04T07:03:44;83118.75;;;-0.22;44.90
70437;BME280;57877;39.750;-104.894;2023-03-04T07:06:10;83121.63;;;-0.13;45.43
70437;BME280;57877;39.750;-104.894;2023-03-04T07:08:34;83126.16;;;-0.45;45.50
70437;BME280;57877;39.750;-104.894;2023-03-04T07:10:59;83130.22;;;-0.21;46.36
70437;BME280;57877;39.750;-104.894;2023-03-04T07:13:25;83127.53;;;-0.45;46.43
70437;BME280;57877;39.750;-104.894;2023-03-04T07:15:50;83125.09;;;-0.27;46.01
70437;BME280;57877;39.750;-104.894;2023-03-04T07:18:15;83129.12;;;0.08;45.90
70437;BME280;57877;39.750;-104.894;2023-03-04T07:20:40;83129.58;;;-0.34;46.34
70437;BME280;57877;39.750;-104.894;2023-03-04T07:23:05;83131.14;;;-0.04;45.43
70437;BME280;57877;39.750;-104.894;2023-03-04T07:25:30;83129.50;;;0.26;44.65
70437;BME280;57877;39.750;-104.894;2023-03-04T07:27:55;83131.48;;;-0.01;44.72
70437;BME280;57877;39.750;-104.894;2023-03-04T07:30:21;83132.51;;;0.02;44.39
70437;BME280;57877;39.750;-104.894;2023-03-04T07:32:45;83132.80;;;0.54;44.09
70437;BME280;57877;39.750;-104.894;2023-03-04T07:35:11;83135.48;;;-0.09;44.72
70437;BME280;57877;39.750;-104.894;2023-03-04T07:37:36;83136.34;;;-0.32;44.99
70437;BME280;57877;39.750;-104.894;2023-03-04T07:40:01;83137.04;;;-0.25;44.81
70437;BME280;57877;39.750;-104.894;2023-03-04T07:42:26;83141.25;;;-0.15;44.44
70437;BME280;57877;39.750;-104.894;2023-03-04T07:44:51;83141.86;;;-0.65;44.47
70437;BME280;57877;39.750;-104.894;2023-03-04T07:47:16;83141.89;;;-0.31;43.70
70437;BME280;57877;39.750;-104.894;2023-03-04T07:49:42;83144.75;;;-0.20;43.45
70437;BME280;57877;39.750;-104.894;2023-03-04T07:52:07;83146.56;;;-0.35;43.08
70437;BME280;57877;39.750;-104.894;2023-03-04T07:54:32;83151.25;;;-0.44;43.05
70437;BME280;57877;39.750;-104.894;2023-03-04T07:56:57;83155.87;;;-0.35;42.20
70437;BME280;57877;39.750;-104.894;2023-03-04T07:59:22;83160.90;;;-0.27;41.91
70437;BME280;57877;39.750;-104.894;2023-03-04T08:01:47;83161.62;;;0.26;41.54
70437;BME280;57877;39.750;-104.894;2023-03-04T08:04:13;83161.25;;;-0.27;41.82
70437;BME280;57877;39.750;-104.894;2023-03-04T08:06:39;83164.47;;;-0.25;41.26
70437;BME280;57877;39.750;-104.894;2023-03-04T08:09:04;83166.32;;;-0.84;41.25
70437;BME280;57877;39.750;-104.894;2023-03-04T08:11:29;83167.11;;;-1.68;39.89
70437;BME280;57877;39.750;-104.894;2023-03-04T08:13:53;83172.83;;;-2.28;39.20
70437;BME280;57877;39.750;-104.894;2023-03-04T08:16:19;83173.07;;;-1.75;36.82
70437;BME280;57877;39.750;-104.894;2023-03-04T08:18:45;83173.48;;;-1.61;35.22
70437;BME280;57877;39.750;-104.894;2023-03-04T08:21:10;83173.55;;;-2.16;33.89
70437;BME280;57877;39.750;-104.894;2023-03-04T08:23:34;83180.86;;;-2.34;32.30
70437;BME280;57877;39.750;-104.894;2023-03-04T08:25:59;83180.78;;;-1.37;30.71
70437;BME280;57877;39.750;-104.894;2023-03-04T08:28:24;83184.07;;;-1.86;30.77
70437;BME280;57877;39.750;-104.894;2023-03-04T08:30:52;83184.20;;;-2.01;29.70
70437;BME280;57877;39.750;-104.894;2023-03-04T08:33:14;83181.98;;;-1.63;28.77
70437;BME280;57877;39.750;-104.894;2023-03-04T08:35:40;83180.61;;;-0.65;28.17
70437;BME280;57877;39.750;-104.894;2023-03-04T08:38:04;83178.72;;;-0.90;27.73
70437;BME280;57877;39.750;-104.894;2023-03-04T08:40:29;83175.98;;;-1.46;27.89
70437;BME280;57877;39.750;-104.894;2023-03-04T08:42:55;83175.30;;;-0.95;26.57
70437;BME280;57877;39.750;-104.894;2023-03-04T08:45:20;83173.90;;;-1.26;26.83
70437;BME280;57877;39.750;-104.894;2023-03-04T08:47:45;83172.87;;;-1.38;26.49
70437;BME280;57877;39.750;-104.894;2023-03-04T08:50:11;83172.08;;;-0.54;26.14
70437;BME280;57877;39.750;-104.894;2023-03-04T08:52:35;83167.00;;;-0.10;25.66
70437;BME280;57877;39.750;-104.894;2023-03-04T08:55:01;83167.66;;;0.01;25.26
70437;BME280;57877;39.750;-104.894;2023-03-04T08:57:26;83161.56;;;-0.03;25.35
70437;BME280;57877;39.750;-104.894;2023-03-04T08:59:56;83154.77;;;0.41;24.77
70437;BME280;57877;39.750;-104.894;2023-03-04T09:02:16;83153.73;;;0.25;24.70
70437;BME280;57877;39.750;-104.894;2023-03-04T09:04:41;83153.83;;;0.48;24.70
70437;BME280;57877;39.750;-104.894;2023-03-04T09:07:06;83152.81;;;0.41;24.81
70437;BME280;57877;39.750;-104.894;2023-03-04T09:09:31;83154.59;;;0.41;24.77
70437;BME280;57877;39.750;-104.894;2023-03-04T09:11:56;83159.88;;;0.46;25.36
70437;BME280;57877;39.750;-104.894;2023-03-04T09:14:21;83161.94;;;0.49;24.81
70437;BME280;57877;39.750;-104.894;2023-03-04T09:16:46;83161.44;;;0.45;24.90
70437;BME280;57877;39.750;-104.894;2023-03-04T09:19:11;83161.06;;;-0.84;25.68
70437;BME280;57877;39.750;-104.894;2023-03-04T09:21:37;83164.02;;;-0.13;25.81
70437;BME280;57877;39.750;-104.894;2023-03-04T09:24:02;83161.73;;;-0.63;26.06
70437;BME280;57877;39.750;-104.894;2023-03-04T09:26:28;83166.98;;;0.23;25.92
70437;BME280;57877;39.750;-104.894;2023-03-04T09:28:53;83168.15;;;-0.12;26.43
70437;BME280;57877;39.750;-104.894;2023-03-04T09:31:17;83164.18;;;0.18;26.05
70437;BME280;57877;39.750;-104.894;2023-03-04T09:33:42;83163.03;;;-0.51;26.42
70437;BME280;57877;39.750;-104.894;2023-03-04T09:36:09;83163.79;;;-0.38;26.41
70437;BME280;57877;39.750;-104.894;2023-03-04T09:38:32;83162.70;;;0.21;26.40
70437;BME280;57877;39.750;-104.894;2023-03-04T09:40:59;83164.22;;;-0.18;26.67
70437;BME280;57877;39.750;-104.894;2023-03-04T09:43:25;83164.72;;;0.11;27.22
70437;BME280;57877;39.750;-104.894;2023-03-04T09:45:50;83165.68;;;-0.40;28.62
70437;BME280;57877;39.750;-104.894;2023-03-04T09:48:16;83167.66;;;-0.90;30.18
70437;BME280;57877;39.750;-104.894;2023-03-04T09:50:42;83167.69;;;-1.07;30.95
70437;BME280;57877;39.750;-104.894;2023-03-04T09:53:12;83162.57;;;-0.81;30.82
70437;BME280;57877;39.750;-104.894;2023-03-04T09:55:34;83163.54;;;-0.80;31.41
70437;BME280;57877;39.750;-104.894;2023-03-04T09:57:58;83162.82;;;-1.96;32.75
70437;BME280;57877;39.750;-104.894;2023-03-04T10:00:21;83168.66;;;-1.69;32.95
70437;BME280;57877;39.750;-104.894;2023-03-04T10:02:49;83179.97;;;-1.16;32.63
70437;BME280;57877;39.750;-104.894;2023-03-04T10:05:14;83178.12;;;-1.29;33.15
70437;BME280;57877;39.750;-104.894;2023-03-04T10:07:36;83181.09;;;-1.49;33.58
70437;BME280;57877;39.750;-104.894;2023-03-04T10:10:03;83182.81;;;-1.30;33.36
70437;BME280;57877;39.750;-104.894;2023-03-04T10:12:28;83182.11;;;-1.36;33.66
70437;BME280;57877;39.750;-104.894;2023-03-04T10:14:53;83191.71;;;-1.68;33.71
70437;BME280;57877;39.750;-104.894;2023-03-04T10:17:20;83194.22;;;-1.62;33.98
70437;BME280;57877;39.750;-104.894;2023-03-04T10:19:53;83194.49;;;-1.90;34.51
70437;BME280;57877;39.750;-104.894;2023-03-04T10:22:13;83199.48;;;-1.56;34.71
70437;BME280;57877;39.750;-104.894;2023-03-04T10:24:30;83193.52;;;-1.60;34.98
70437;BME280;57877;39.750;-104.894;2023-03-04T10:26:58;83195.51;;;-1.58;34.80
70437;BME280;57877;39.750;-104.894;2023-03-04T10:29:22;83199.69;;;-1.60;35.01
70437;BME280;57877;39.750;-104.894;2023-03-04T10:31:47;83205.28;;;-1.30;34.82
70437;BME280;57877;39.750;-104.894;2023-03-04T10:34:12;83211.92;;;-2.21;35.53
70437;BME280;57877;39.750;-104.894;2023-03-04T10:36:44;83224.40;;;-2.13;35.84
70437;BME280;57877;39.750;-104.894;2023-03-04T10:39:04;83226.69;;;-1.93;35.57
70437;BME280;57877;39.750;-104.894;2023-03-04T10:41:28;83231.08;;;-2.06;35.73
70437;BME280;57877;39.750;-104.894;2023-03-04T10:43:59;83237.18;;;-2.13;36.29
70437;BME280;57877;39.750;-104.894;2023-03-04T10:46:16;83238.56;;;-2.42;36.65
70437;BME280;57877;39.750;-104.894;2023-03-04T10:48:42;83243.79;;;-2.22;36.38
70437;BME280;57877;39.750;-104.894;2023-03-04T10:51:11;83246.75;;;-2.20;36.70
70437;BME280;57877;39.750;-104.894;2023-03-04T10:53:35;83255.39;;;-2.28;36.64
70437;BME280;57877;39.750;-104.894;2023-03-04T10:55:56;83256.19;;;-2.59;37.47
70437;BME280;57877;39.750;-104.894;2023-03-04T10:58:22;83261.14;;;-2.30;36.97
70437;BME280;57877;39.750;-104.894;2023-03-04T11:00:59;83264.74;;;-2.57;36.94
70437;BME280;57877;39.750;-104.894;2023-03-04T11:03:21;83275.10;;;-2.85;37.49
70437;BME280;57877;39.750;-104.894;2023-03-04T11:05:37;83276.55;;;-2.44;37.17
70437;BME280;57877;39.750;-104.894;2023-03-04T11:08:02;83277.02;;;-2.49;37.01
70437;BME280;57877;39.750;-104.894;2023-03-04T11:10:30;83280.10;;;-2.58;37.49
70437;BME280;57877;39.750;-104.894;2023-03-04T11:12:59;83279.80;;;-2.51;37.53
70437;BME280;57877;39.750;-104.894;2023-03-04T11:15:21;83286.47;;;-2.74;37.57
70437;BME280;57877;39.750;-104.894;2023-03-04T11:17:47;83293.16;;;-2.84;38.06
70437;BME280;57877;39.750;-104.894;2023-03-04T11:20:15;83297.05;;;-2.92;38.37
70437;BME280;57877;39.750;-104.894;2023-03-04T11:22:33;83298.39;;;-2.71;38.01
70437;BME280;57877;39.750;-104.894;2023-03-04T11:25:02;83300.46;;;-3.20;38.97
70437;BME280;57877;39.750;-104.894;2023-03-04T11:27:33;83304.58;;;-3.42;39.16
70437;BME280;57877;39.750;-104.894;2023-03-04T11:29:52;83305.36;;;-3.18;39.50
70437;BME280;57877;39.750;-104.894;2023-03-04T11:32:19;83308.30;;;-3.42;39.72
70437;BME280;57877;39.750;-104.894;2023-03-04T11:34:45;83302.05;;;-3.74;40.42
70437;BME280;57877;39.750;-104.894;2023-03-04T11:37:09;83300.67;;;-3.80;40.34
70437;BME280;57877;39.750;-104.894;2023-03-04T11:39:34;83295.13;;;-3.63;39.94
70437;BME280;57877;39.750;-104.894;2023-03-04T11:41:59;83303.61;;;-3.31;39.01
70437;BME280;57877;39.750;-104.894;2023-03-04T11:44:19;83299.30;;;-3.82;39.55
70437;BME280;57877;39.750;-104.894;2023-03-04T11:46:54;83293.82;;;-3.84;39.33
70437;BME280;57877;39.750;-104.894;2023-03-04T11:51:38;83306.79;;;-3.47;39.52
70437;BME280;57877;39.750;-104.894;2023-03-04T11:54:12;83314.39;;;-3.68;39.38
70437;BME280;57877;39.750;-104.894;2023-03-04T11:56:31;83319.82;;;-3.41;38.81
70437;BME280;57877;39.750;-104.894;2023-03-04T12:01:20;83320.25;;;-3.43;38.54
70437;BME280;57877;39.750;-104.894;2023-03-04T12:03:52;83323.27;;;-3.64;38.72
70437;BME280;57877;39.750;-104.894;2023-03-04T12:06:11;83337.52;;;-3.67;38.75
70437;BME280;57877;39.750;-104.894;2023-03-04T12:08:39;83334.18;;;-3.57;38.16
70437;BME280;57877;39.750;-104.894;2023-03-04T12:11:02;83333.17;;;-3.21;38.17
70437;BME280;57877;39.750;-104.894;2023-03-04T12:15:52;83344.13;;;-3.70;38.36
70437;BME280;57877;39.750;-104.894;2023-03-04T12:18:21;83347.96;;;-3.74;38.67
70437;BME280;57877;39.750;-104.894;2023-03-04T12:23:12;83339.95;;;-3.82;38.00
70437;BME280;57877;39.750;-104.894;2023-03-04T12:25:37;83344.70;;;-3.78;37.94
70437;BME280;57877;39.750;-104.894;2023-03-04T12:27:59;83345.02;;;-3.62;37.75
70437;BME280;57877;39.750;-104.894;2023-03-04T12:30:29;83345.92;;;-4.11;38.30
70437;BME280;57877;39.750;-104.894;2023-03-04T12:32:48;83349.79;;;-3.66;38.11